Time;durP1;ratioP1;P1;durP2;ratioP2;P2;SDS_P1;SDS_P2;PMS_P1;PMS_P2;Temp;Humidity;BMP_temperature;BMP_pressure;BME280_temperature;BME280_humidity;BME280_pressure;Samples;Min_cycle;Max_cycle;Signal;HPM_P1;HPM_P2
2021/03/14 05:52:45;;;;;;;13.38;4.70;;;4.50;99.90;;;;;;4971172;28;20062;-88
2021/03/14 05:55:17;;;;;;;8.57;4.15;;;4.40;99.90;;;;;;4957422;28;20039;-88
2021/03/14 05:57:52;;;;;;;13.45;4.80;;;4.40;99.90;;;;;;4957401;28;20489;-87
2021/03/14 06:00:30;;;;;;;12.02;4.53;;;4.40;99.90;;;;;;4986891;28;20389;-87
2021/03/14 06:03:00;;;;;;;12.02;4.85;;;4.40;99.90;;;;;;4977888;28;20061;-88
2021/03/14 06:05:28;;;;;;;13.73;6.22;;;4.40;99.90;;;;;;4988243;28;20485;-88
2021/03/14 06:07:54;;;;;;;14.20;5.55;;;4.40;99.90;;;;;;4973851;28;20038;-87
2021/03/14 06:10:21;;;;;;;15.65;6.22;;;4.40;99.90;;;;;;4970644;28;20034;-88
2021/03/14 06:12:47;;;;;;;9.90;5.30;;;4.40;99.90;;;;;;4963837;28;20054;-86
2021/03/14 06:15:14;;;;;;;8.90;5.35;;;4.30;99.90;;;;;;4981940;28;20054;-87
2021/03/14 06:17:39;;;;;;;7.22;5.05;;;4.30;99.90;;;;;;4980172;28;20042;-85
2021/03/14 06:20:07;;;;;;;12.27;5.53;;;4.30;99.90;;;;;;4968940;28;20035;-88
2021/03/14 06:22:33;;;;;;;12.20;6.03;;;4.30;99.90;;;;;;4974779;28;20464;-86
2021/03/14 06:24:59;;;;;;;15.50;6.85;;;4.30;99.90;;;;;;4961721;28;20062;-85
2021/03/14 06:27:52;;;;;;;10.75;5.90;;;4.30;99.90;;;;;;4965325;28;20026;-87
2021/03/14 06:30:24;;;;;;;10.90;6.28;;;4.30;99.90;;;;;;4980051;28;20027;-90
2021/03/14 06:33:11;;;;;;;14.27;7.45;;;4.30;99.90;;;;;;4963892;28;20038;-88
2021/03/14 06:35:45;;;;;;;12.30;6.70;;;4.30;99.90;;;;;;4972667;28;20027;-86
2021/03/14 06:38:26;;;;;;;10.20;6.00;;;4.30;99.90;;;;;;4971653;28;20054;-87
2021/03/14 06:41:02;;;;;;;14.30;6.43;;;4.30;99.90;;;;;;4963444;28;20065;-87
2021/03/14 06:43:45;;;;;;;12.50;6.13;;;4.40;99.90;;;;;;4974273;28;20031;-87
2021/03/14 06:46:38;;;;;;;11.05;6.00;;;4.40;99.90;;;;;;4977869;28;20046;-87
2021/03/14 06:49:14;;;;;;;10.77;6.22;;;4.40;99.90;;;;;;4992178;28;20065;-87
2021/03/14 06:51:42;;;;;;;12.05;5.70;;;4.50;99.90;;;;;;4984531;28;20050;-88
2021/03/14 06:54:18;;;;;;;8.85;5.75;;;4.50;99.90;;;;;;4968320;28;20035;-88
2021/03/14 06:57:00;;;;;;;14.45;6.40;;;4.50;99.90;;;;;;4993188;28;20090;-86
2021/03/14 06:59:25;;;;;;;11.50;6.82;;;4.50;99.90;;;;;;4968422;28;20064;-87
2021/03/14 07:01:56;;;;;;;11.88;7.50;;;4.50;99.90;;;;;;4970839;28;20071;-87
2021/03/14 07:04:37;;;;;;;10.77;7.28;;;4.60;99.90;;;;;;4959582;28;20042;-88
2021/03/14 07:07:03;;;;;;;12.73;7.63;;;4.60;99.90;;;;;;4959731;28;20035;-89
2021/03/14 07:09:30;;;;;;;16.38;9.13;;;4.60;99.90;;;;;;4966150;28;20090;-91
2021/03/14 07:11:56;;;;;;;11.95;8.30;;;4.60;99.90;;;;;;4986955;28;20062;-88
2021/03/14 07:14:25;;;;;;;11.13;7.82;;;4.60;99.90;;;;;;4956993;28;20030;-88
2021/03/14 07:16:52;;;;;;;14.07;7.82;;;4.60;99.90;;;;;;4963399;28;20077;-87
2021/03/14 07:19:30;;;;;;;12.65;7.88;;;4.60;99.90;;;;;;4973948;28;20126;-88
2021/03/14 07:22:04;;;;;;;13.82;8.25;;;4.70;99.90;;;;;;4968286;28;20059;-87
2021/03/14 07:24:38;;;;;;;11.43;9.00;;;4.70;99.90;;;;;;4995988;28;20389;-86
2021/03/14 07:27:18;;;;;;;11.68;7.72;;;4.70;99.90;;;;;;4975767;28;20034;-86
2021/03/14 07:29:46;;;;;;;11.85;7.57;;;4.70;99.90;;;;;;4966938;28;20034;-86
2021/03/14 07:32:12;;;;;;;13.63;8.50;;;4.80;99.90;;;;;;4995791;28;20062;-89
2021/03/14 07:34:38;;;;;;;11.35;8.07;;;4.80;99.90;;;;;;4978571;28;20026;-87
2021/03/14 07:37:04;;;;;;;13.25;8.18;;;4.80;99.90;;;;;;4960038;28;20039;-87
2021/03/14 07:39:30;;;;;;;11.82;7.95;;;4.90;99.90;;;;;;4959422;28;20038;-88
2021/03/14 07:41:57;;;;;;;16.55;9.43;;;4.90;99.90;;;;;;4959208;28;20027;-89
2021/03/14 07:44:25;;;;;;;14.02;8.82;;;4.90;99.90;;;;;;4989701;28;20088;-85
2021/03/14 07:46:52;;;;;;;13.55;9.15;;;5.00;99.90;;;;;;4978792;28;20038;-88
2021/03/14 07:49:24;;;;;;;14.32;8.98;;;5.00;99.90;;;;;;4976115;28;20393;-88
2021/03/14 07:52:01;;;;;;;15.55;10.25;;;5.00;99.90;;;;;;4985732;28;20058;-87
2021/03/14 07:54:44;;;;;;;19.00;11.10;;;5.10;99.90;;;;;;4981939;28;20054;-87
2021/03/14 07:57:12;;;;;;;20.73;12.20;;;5.20;99.90;;;;;;4974485;28;20027;-87
2021/03/14 07:59:38;;;;;;;17.92;11.55;;;5.20;99.90;;;;;;4959260;28;20488;-89
2021/03/14 08:02:18;;;;;;;17.30;11.63;;;5.40;99.90;;;;;;4969812;28;20089;-89
2021/03/14 08:04:49;;;;;;;22.10;11.95;;;5.50;99.90;;;;;;4986745;23;20050;-89
2021/03/14 08:07:16;;;;;;;18.98;11.77;;;5.50;99.90;;;;;;4976840;28;20039;-89
2021/03/14 08:09:45;;;;;;;19.45;12.02;;;5.60;99.90;;;;;;4974534;28;20396;-89
2021/03/14 08:12:40;;;;;;;23.23;13.35;;;5.60;99.90;;;;;;4986693;28;20088;-87
2021/03/14 08:15:23;;;;;;;18.52;12.20;;;5.70;99.90;;;;;;4994974;28;20100;-90
2021/03/14 08:17:53;;;;;;;20.67;12.00;;;5.70;99.90;;;;;;4997978;28;20034;-88
2021/03/14 08:20:49;;;;;;;20.23;11.32;;;5.70;99.90;;;;;;4998273;28;20044;-90
2021/03/14 08:23:19;;;;;;;21.95;11.63;;;5.70;99.90;;;;;;4984175;28;20040;-88
2021/03/14 08:25:50;;;;;;;22.55;11.50;;;5.80;99.90;;;;;;5015371;28;20531;-86
2021/03/14 08:28:33;;;;;;;18.85;11.13;;;5.90;99.90;;;;;;4984939;28;20125;-88
2021/03/14 08:31:06;;;;;;;18.83;10.75;;;5.90;99.90;;;;;;4994891;28;20086;-85
2021/03/14 08:33:46;;;;;;;22.10;10.85;;;6.00;99.90;;;;;;4991371;28;20058;-87
2021/03/14 08:36:16;;;;;;;17.90;10.23;;;6.10;99.90;;;;;;4974887;28;20034;-89
2021/03/14 08:38:49;;;;;;;20.92;11.25;;;6.10;99.90;;;;;;4975260;28;20370;-89
2021/03/14 08:41:17;;;;;;;19.67;10.48;;;6.20;99.90;;;;;;4980874;28;20033;-87
2021/03/14 08:43:44;;;;;;;23.92;10.68;;;6.30;99.90;;;;;;4986553;28;20536;-89
2021/03/14 08:46:11;;;;;;;17.13;9.43;;;6.40;99.90;;;;;;5003965;28;20049;-88
2021/03/14 08:48:37;;;;;;;18.65;9.55;;;6.50;99.90;;;;;;4998022;28;20034;-87
2021/03/14 08:51:05;;;;;;;18.13;9.82;;;6.60;99.90;;;;;;4991547;28;20038;-88
2021/03/14 08:53:32;;;;;;;19.02;9.77;;;6.80;99.90;;;;;;4980351;28;20104;-87
2021/03/14 08:55:59;;;;;;;19.08;9.73;;;7.00;99.90;;;;;;5001600;28;20035;-88
2021/03/14 08:58:25;;;;;;;22.13;10.18;;;7.10;99.90;;;;;;4987491;28;20042;-87
2021/03/14 09:01:05;;;;;;;21.00;9.23;;;7.10;99.90;;;;;;5010577;28;20084;-87
2021/03/14 09:03:32;;;;;;;18.38;8.57;;;7.00;99.90;;;;;;4980899;28;20025;-88
2021/03/14 09:06:28;;;;;;;17.52;7.78;;;6.90;99.90;;;;;;4983694;28;20049;-86
2021/03/14 09:09:03;;;;;;;18.92;8.93;;;6.90;99.90;;;;;;4990044;28;20036;-88
2021/03/14 09:11:46;;;;;;;17.27;8.27;;;6.90;99.90;;;;;;4990288;28;20061;-88
2021/03/14 09:14:34;;;;;;;14.07;7.18;;;6.90;99.90;;;;;;4989937;28;20034;-88
2021/03/14 09:17:13;;;;;;;14.65;7.32;;;6.90;99.90;;;;;;5003055;28;20053;-87
2021/03/14 09:19:46;;;;;;;18.20;7.50;;;7.00;99.90;;;;;;4985256;28;20022;-87
2021/03/14 09:22:23;;;;;;;16.63;7.53;;;7.00;99.90;;;;;;4980781;28;20034;-88
2021/03/14 09:24:51;;;;;;;18.88;7.78;;;7.10;99.90;;;;;;4976269;28;20049;-87
2021/03/14 09:27:19;;;;;;;16.08;7.80;;;7.10;99.90;;;;;;4981895;28;20026;-87
2021/03/14 09:29:52;;;;;;;17.23;7.18;;;7.20;99.90;;;;;;4984362;28;20045;-87
2021/03/14 09:32:32;;;;;;;15.63;7.60;;;7.20;99.90;;;;;;4987444;28;20096;-86
2021/03/14 09:35:22;;;;;;;15.30;6.75;;;7.20;99.90;;;;;;4978326;28;20050;-88
2021/03/14 09:37:50;;;;;;;17.52;7.10;;;7.30;99.90;;;;;;4986117;28;20030;-88
2021/03/14 09:40:17;;;;;;;18.08;7.07;;;7.40;99.90;;;;;;4974832;28;20049;-87
2021/03/14 09:42:45;;;;;;;13.73;7.00;;;7.50;99.90;;;;;;4992555;28;20039;-88
2021/03/14 09:45:19;;;;;;;12.10;5.90;;;7.60;99.90;;;;;;4974751;28;20515;-88
2021/03/14 09:47:57;;;;;;;16.85;6.75;;;7.70;99.90;;;;;;4982516;28;20068;-87
2021/03/14 09:50:23;;;;;;;16.40;7.90;;;7.90;99.90;;;;;;4979373;28;20038;-86
2021/03/14 09:52:48;;;;;;;17.92;6.85;;;7.90;99.90;;;;;;4982584;28;20034;-90
2021/03/14 09:55:25;;;;;;;17.13;7.05;;;7.90;99.90;;;;;;4987136;28;20045;-90
2021/03/14 09:57:51;;;;;;;13.27;6.63;;;7.80;99.90;;;;;;4980751;28;20437;-89
2021/03/14 10:00:22;;;;;;;13.05;6.50;;;7.70;99.90;;;;;;5008082;28;20038;-88
2021/03/14 10:02:49;;;;;;;16.92;5.95;;;7.60;99.90;;;;;;4980843;28;20077;-88
2021/03/14 10:05:14;;;;;;;14.73;5.57;;;7.60;99.90;;;;;;4981214;28;20123;-89
2021/03/14 10:07:40;;;;;;;11.50;5.53;;;7.60;99.90;;;;;;4990189;28;20050;-87
2021/03/14 10:10:10;;;;;;;9.68;5.35;;;7.80;99.90;;;;;;5006011;28;20057;-88
2021/03/14 10:12:36;;;;;;;11.65;5.43;;;7.80;99.90;;;;;;4996858;28;20049;-88
2021/03/14 10:15:03;;;;;;;10.25;5.50;;;7.90;99.90;;;;;;4981060;28;20472;-89
2021/03/14 10:17:28;;;;;;;17.17;6.53;;;8.00;99.90;;;;;;4993177;28;20817;-89
2021/03/14 10:19:54;;;;;;;12.95;5.72;;;8.10;99.90;;;;;;5004754;28;20061;-89
2021/03/14 10:22:38;;;;;;;13.07;5.90;;;8.20;99.90;;;;;;4984519;28;20069;-88
2021/03/14 10:25:06;;;;;;;13.88;5.00;;;8.30;99.90;;;;;;4995791;28;20399;-89
2021/03/14 10:27:32;;;;;;;11.20;5.28;;;8.20;99.90;;;;;;4991191;28;20023;-89
2021/03/14 10:30:00;;;;;;;10.88;5.03;;;8.30;99.90;;;;;;4979617;28;20045;-90
2021/03/14 10:32:28;;;;;;;12.95;5.60;;;8.40;99.90;;;;;;4992511;28;20041;-91
2021/03/14 10:34:58;;;;;;;13.32;4.80;;;8.60;99.90;;;;;;5017598;28;20060;-87
2021/03/14 10:37:25;;;;;;;11.30;4.25;;;8.60;99.90;;;;;;4977156;28;20562;-88
2021/03/14 10:39:59;;;;;;;12.95;3.58;;;8.60;99.90;;;;;;4988368;28;20038;-88
2021/03/14 10:42:46;;;;;;;9.60;3.45;;;8.60;99.90;;;;;;4984619;28;20077;-85
2021/03/14 10:45:20;;;;;;;10.20;3.20;;;8.70;99.90;;;;;;4972481;28;20034;-85
2021/03/14 10:47:57;;;;;;;7.68;3.13;;;9.40;99.90;;;;;;4976283;28;20105;-85
2021/03/14 10:50:29;;;;;;;5.38;3.10;;;9.90;99.90;;;;;;4993824;28;20037;-85
2021/03/14 10:53:12;;;;;;;9.07;3.20;;;10.60;99.90;;;;;;4977887;28;20030;-86
2021/03/14 10:55:39;;;;;;;9.93;2.90;;;11.30;99.90;;;;;;4974596;28;20455;-88
2021/03/14 10:58:10;;;;;;;6.85;2.30;;;11.20;99.90;;;;;;4984836;28;20538;-87
2021/03/14 11:00:38;;;;;;;7.22;2.40;;;11.20;99.90;;;;;;5013263;28;20029;-88
2021/03/14 11:03:14;;;;;;;12.80;2.88;;;11.20;99.90;;;;;;4979221;28;20068;-87
2021/03/14 11:05:42;;;;;;;4.95;1.77;;;10.80;99.90;;;;;;4987615;28;20054;-87
2021/03/14 11:08:08;;;;;;;3.35;1.40;;;10.00;99.90;;;;;;4986922;28;20417;-87
2021/03/14 11:10:34;;;;;;;4.00;1.52;;;9.40;99.90;;;;;;4980549;28;20035;-87
2021/03/14 11:13:14;;;;;;;5.72;1.30;;;9.30;99.90;;;;;;4978622;28;20044;-86
2021/03/14 11:15:40;;;;;;;4.30;2.10;;;9.50;99.90;;;;;;4974744;28;20039;-85
2021/03/14 11:18:05;;;;;;;2.75;1.15;;;9.70;99.90;;;;;;4977769;28;20085;-88
2021/03/14 11:20:33;;;;;;;5.47;1.10;;;10.40;99.90;;;;;;4990725;28;20432;-86
2021/03/14 11:23:00;;;;;;;4.32;1.02;;;11.20;99.90;;;;;;4980401;28;20030;-86
2021/03/14 11:25:26;;;;;;;6.63;1.17;;;11.80;99.90;;;;;;4993175;28;20515;-87
2021/03/14 11:27:53;;;;;;;5.65;1.40;;;11.60;99.90;;;;;;5003174;28;20110;-86
2021/03/14 11:30:21;;;;;;;6.72;2.00;;;11.10;99.90;;;;;;4987928;28;20766;-87
2021/03/14 11:32:46;;;;;;;5.50;1.50;;;10.70;99.90;;;;;;4978711;28;20161;-87
2021/03/14 11:35:12;;;;;;;5.22;1.70;;;10.80;99.90;;;;;;4990960;28;20121;-87
2021/03/14 11:37:38;;;;;;;6.05;1.70;;;10.80;99.90;;;;;;4974043;28;21406;-84
2021/03/14 11:40:05;;;;;;;7.03;1.33;;;10.70;99.90;;;;;;4981222;28;20022;-86
2021/03/14 11:42:31;;;;;;;8.68;1.77;;;10.50;99.90;;;;;;4978242;28;20034;-85
2021/03/14 11:44:58;;;;;;;5.75;1.95;;;10.40;99.90;;;;;;4987409;28;20118;-85
2021/03/14 11:47:24;;;;;;;4.70;1.40;;;10.20;99.90;;;;;;4987268;28;20115;-84
2021/03/14 11:49:50;;;;;;;5.13;1.70;;;10.00;99.90;;;;;;4981179;28;20034;-85
2021/03/14 11:52:16;;;;;;;7.60;1.70;;;9.90;99.90;;;;;;4997692;28;20046;-88
2021/03/14 11:54:42;;;;;;;5.45;1.77;;;9.90;99.90;;;;;;4988122;28;20038;-83
2021/03/14 11:57:08;;;;;;;7.50;1.77;;;9.90;99.90;;;;;;4975094;28;20686;-83
2021/03/14 11:59:34;;;;;;;6.72;1.65;;;10.00;99.90;;;;;;4985641;28;20035;-86
2021/03/14 12:02:00;;;;;;;6.90;1.95;;;10.10;99.90;;;;;;4983565;28;20038;-87
2021/03/14 12:04:26;;;;;;;7.40;1.83;;;10.30;99.90;;;;;;4979131;28;20118;-84
2021/03/14 12:06:52;;;;;;;6.78;1.73;;;10.40;99.90;;;;;;4999768;28;20125;-83
2021/03/14 12:09:17;;;;;;;8.00;1.45;;;10.40;99.90;;;;;;4978266;28;20566;-84
2021/03/14 12:11:43;;;;;;;6.85;1.63;;;10.40;99.90;;;;;;4985853;28;20077;-85
2021/03/14 12:14:09;;;;;;;9.85;1.75;;;10.60;99.90;;;;;;5008161;28;20533;-85
2021/03/14 12:16:36;;;;;;;6.80;1.33;;;11.40;99.90;;;;;;4980470;28;20137;-85
2021/03/14 12:19:02;;;;;;;5.57;1.27;;;11.50;99.90;;;;;;4982835;28;20110;-87
2021/03/14 12:21:28;;;;;;;5.20;1.33;;;11.20;99.90;;;;;;4981628;28;20053;-87
2021/03/14 12:23:53;;;;;;;7.35;1.65;;;10.80;99.90;;;;;;4984539;28;20026;-86
2021/03/14 12:26:20;;;;;;;9.20;1.55;;;10.50;99.90;;;;;;4983660;28;20122;-85
2021/03/14 12:28:46;;;;;;;8.68;1.70;;;10.40;99.90;;;;;;5000006;28;20034;-83
2021/03/14 12:31:11;;;;;;;6.63;1.42;;;10.30;99.90;;;;;;5000883;28;20498;-82
2021/03/14 12:33:37;;;;;;;5.82;1.60;;;10.90;99.90;;;;;;4983288;28;20073;-84
2021/03/14 12:36:03;;;;;;;8.10;1.50;;;11.60;99.90;;;;;;4983348;28;20041;-85
2021/03/14 12:38:29;;;;;;;7.65;1.75;;;11.60;99.90;;;;;;4983739;28;20029;-82
2021/03/14 12:40:54;;;;;;;6.00;1.40;;;11.30;99.90;;;;;;4983879;28;20197;-86
2021/03/14 12:43:21;;;;;;;5.60;1.10;;;11.00;99.90;;;;;;4981882;28;20030;-88
2021/03/14 12:45:49;;;;;;;3.53;0.88;;;10.80;99.90;;;;;;4975448;28;20058;-85
2021/03/14 12:48:19;;;;;;;7.97;1.33;;;11.00;99.90;;;;;;4984544;28;20034;-87
2021/03/14 12:50:45;;;;;;;6.55;1.30;;;11.40;99.60;;;;;;4976894;28;20030;-85
2021/03/14 12:53:11;;;;;;;5.55;1.27;;;11.20;99.10;;;;;;4989428;28;20042;-84
2021/03/14 12:55:37;;;;;;;7.25;1.40;;;10.90;99.50;;;;;;4980167;28;20026;-85
2021/03/14 12:58:03;;;;;;;6.25;1.55;;;10.60;99.70;;;;;;4982375;28;20050;-84
2021/03/14 13:00:29;;;;;;;6.57;1.80;;;11.10;99.90;;;;;;4986662;28;20033;-86
2021/03/14 13:02:55;;;;;;;6.90;1.90;;;11.40;99.90;;;;;;4977414;28;20491;-84
2021/03/14 13:05:21;;;;;;;7.15;1.77;;;11.40;99.90;;;;;;5008898;28;20468;-85
2021/03/14 13:07:47;;;;;;;5.75;1.73;;;11.20;99.90;;;;;;4988105;28;20096;-85
2021/03/14 13:10:14;;;;;;;5.10;1.48;;;10.90;99.90;;;;;;5009160;28;20891;-87
2021/03/14 13:12:40;;;;;;;4.20;1.10;;;10.60;99.70;;;;;;4994200;28;20054;-85
2021/03/14 13:15:07;;;;;;;5.47;1.35;;;11.10;99.90;;;;;;5004222;28;20121;-85
2021/03/14 13:17:34;;;;;;;4.22;1.40;;;12.20;98.60;;;;;;4980239;28;20042;-85
2021/03/14 13:20:00;;;;;;;6.88;1.50;;;12.40;97.30;;;;;;4999150;28;20039;-86
2021/03/14 13:22:25;;;;;;;6.35;1.45;;;12.10;96.70;;;;;;4986331;28;20130;-85
2021/03/14 13:24:51;;;;;;;6.22;1.27;;;11.90;97.40;;;;;;4993395;28;20030;-85
2021/03/14 13:27:17;;;;;;;7.50;1.27;;;11.70;97.80;;;;;;4995505;28;20133;-86
2021/03/14 13:29:43;;;;;;;8.70;1.90;;;11.50;98.10;;;;;;4979904;28;20041;-87
2021/03/14 13:32:09;;;;;;;9.38;1.65;;;11.20;97.80;;;;;;4980391;28;20516;-88
2021/03/14 13:34:35;;;;;;;8.63;1.70;;;10.80;98.50;;;;;;4987551;28;20042;-88
2021/03/14 13:37:03;;;;;;;7.50;1.75;;;10.50;99.00;;;;;;4975863;28;20070;-86
2021/03/14 13:39:28;;;;;;;8.02;1.75;;;10.50;98.70;;;;;;4986669;28;20031;-88
2021/03/14 13:41:54;;;;;;;8.57;1.83;;;10.60;98.60;;;;;;4972941;28;20122;-86
2021/03/14 13:44:20;;;;;;;8.68;2.20;;;10.50;98.80;;;;;;5003054;28;20029;-87
2021/03/14 13:46:45;;;;;;;5.80;1.60;;;10.80;99.60;;;;;;4988954;28;20544;-86
2021/03/14 13:49:11;;;;;;;8.60;1.90;;;11.90;99.70;;;;;;5006507;28;20038;-85
2021/03/14 13:51:36;;;;;;;6.88;1.80;;;12.60;96.90;;;;;;4980020;28;20041;-88
2021/03/14 13:54:02;;;;;;;8.45;1.63;;;12.90;95.40;;;;;;4982016;28;20038;-85
2021/03/14 13:56:28;;;;;;;7.03;2.00;;;13.30;96.00;;;;;;5003502;28;20380;-87
2021/03/14 13:58:54;;;;;;;6.03;1.42;;;13.40;93.70;;;;;;4976073;28;20058;-85
2021/03/14 14:01:19;;;;;;;6.20;1.60;;;13.50;93.70;;;;;;5007054;28;20033;-87
2021/03/14 14:03:45;;;;;;;8.60;1.67;;;13.40;94.10;;;;;;4983206;28;20021;-88
2021/03/14 14:06:10;;;;;;;7.40;1.67;;;13.30;94.10;;;;;;4983137;28;20054;-88
2021/03/14 14:08:36;;;;;;;6.78;1.50;;;12.70;92.80;;;;;;4990620;28;20384;-87
2021/03/14 14:11:03;;;;;;;7.55;1.73;;;12.00;93.30;;;;;;4978904;28;20085;-89
2021/03/14 14:13:28;;;;;;;9.90;1.88;;;11.70;94.30;;;;;;4989570;28;20038;-88
2021/03/14 14:15:57;;;;;;;7.90;1.50;;;11.40;94.90;;;;;;5001528;28;20462;-86
2021/03/14 14:18:24;;;;;;;7.15;1.38;;;11.00;95.90;;;;;;4982361;28;20046;-83
2021/03/14 14:20:51;;;;;;;6.65;1.40;;;10.70;95.90;;;;;;4991335;28;20564;-85
2021/03/14 14:23:17;;;;;;;7.97;1.65;;;10.40;96.50;;;;;;4992567;28;20030;-88
2021/03/14 14:25:43;;;;;;;4.55;1.30;;;10.20;96.60;;;;;;4968225;28;20431;-85
2021/03/14 14:28:09;;;;;;;6.70;1.40;;;10.80;96.30;;;;;;4979218;28;20034;-85
2021/03/14 14:30:34;;;;;;;5.10;1.00;;;11.60;95.00;;;;;;4973124;28;20048;-89
2021/03/14 14:33:00;;;;;;;7.28;1.42;;;12.50;94.40;;;;;;4998026;28;20113;-91
2021/03/14 14:35:27;;;;;;;8.57;1.90;;;12.90;93.50;;;;;;4983589;28;20036;-85
2021/03/14 14:37:53;;;;;;;8.20;1.80;;;13.20;93.00;;;;;;4981534;28;20069;-86
2021/03/14 14:40:22;;;;;;;6.50;1.77;;;13.30;92.90;;;;;;4996774;28;20030;-86
2021/03/14 14:42:49;;;;;;;8.07;1.55;;;13.30;92.10;;;;;;4971777;28;20050;-89
2021/03/14 14:45:15;;;;;;;4.57;1.33;;;13.30;92.30;;;;;;4969901;28;20057;-86
2021/03/14 14:47:47;;;;;;;8.10;1.98;;;12.80;92.50;;;;;;4988793;28;20073;-87
2021/03/14 14:50:13;;;;;;;6.32;1.23;;;12.20;93.20;;;;;;4992904;28;20042;-86
2021/03/14 14:52:39;;;;;;;10.32;1.95;;;11.50;94.10;;;;;;4965275;28;20100;-90
2021/03/14 14:55:06;;;;;;;6.47;1.20;;;11.20;94.70;;;;;;4976352;28;20488;-88
2021/03/14 14:57:32;;;;;;;9.73;1.50;;;11.20;94.90;;;;;;4984215;28;20061;-85
2021/03/14 14:59:58;;;;;;;8.18;1.63;;;11.20;95.10;;;;;;5006211;28;20066;-85
2021/03/14 15:02:24;;;;;;;8.73;1.77;;;11.10;95.30;;;;;;4976498;28;20038;-84
2021/03/14 15:04:49;;;;;;;6.80;1.35;;;11.00;95.40;;;;;;4997834;28;20077;-86
2021/03/14 15:07:15;;;;;;;5.05;1.20;;;11.00;95.40;;;;;;4995476;28;20046;-84
2021/03/14 15:09:41;;;;;;;9.95;1.98;;;10.90;95.70;;;;;;4995778;28;20027;-87
2021/03/14 15:12:08;;;;;;;10.57;1.50;;;10.80;95.00;;;;;;4973917;28;20704;-84
2021/03/14 15:14:33;;;;;;;8.45;1.45;;;10.60;95.40;;;;;;4978285;28;20034;-83
2021/03/14 15:16:59;;;;;;;7.72;2.35;;;10.40;95.70;;;;;;4984275;28;20048;-83
2021/03/14 15:19:25;;;;;;;11.02;1.40;;;10.20;95.90;;;;;;4980979;28;20042;-85
2021/03/14 15:21:51;;;;;;;8.25;1.40;;;10.10;96.20;;;;;;4994570;28;20084;-83
2021/03/14 15:24:17;;;;;;;8.48;1.40;;;10.00;96.20;;;;;;4974134;28;20385;-86
2021/03/14 15:26:43;;;;;;;8.85;1.60;;;9.90;96.10;;;;;;4977745;28;20046;-86
2021/03/14 15:29:08;;;;;;;8.55;1.50;;;9.80;96.20;;;;;;4988033;28;20026;-89
2021/03/14 15:31:34;;;;;;;11.35;1.70;;;9.70;96.50;;;;;;4988658;28;20048;-86
2021/03/14 15:33:59;;;;;;;7.93;1.48;;;9.60;97.20;;;;;;4987994;28;20176;-87
2021/03/14 15:36:25;;;;;;;9.80;1.95;;;9.50;97.50;;;;;;4985377;28;20144;-86
2021/03/14 15:38:51;;;;;;;8.63;2.42;;;9.50;97.60;;;;;;4985443;28;20041;-87
2021/03/14 15:41:16;;;;;;;9.35;1.35;;;9.50;97.50;;;;;;4980445;28;20038;-88
2021/03/14 15:43:42;;;;;;;8.95;1.80;;;9.60;97.60;;;;;;4976470;28;20056;-86
2021/03/14 15:46:08;;;;;;;9.13;1.70;;;9.70;97.90;;;;;;4983943;28;20055;-86
2021/03/14 15:48:33;;;;;;;8.15;1.92;;;9.60;97.70;;;;;;4984825;28;20169;-86
2021/03/14 15:50:59;;;;;;;8.48;1.50;;;9.60;97.80;;;;;;4985707;28;20755;-85
2021/03/14 15:53:25;;;;;;;8.20;1.40;;;9.50;97.50;;;;;;4978627;28;20038;-88
2021/03/14 15:55:51;;;;;;;12.43;1.60;;;9.40;97.40;;;;;;4976419;28;20065;-87
2021/03/14 15:58:19;;;;;;;6.28;1.27;;;9.30;97.20;;;;;;4976457;28;20045;-87
2021/03/14 16:00:45;;;;;;;11.32;2.53;;;9.30;97.10;;;;;;4983533;28;20042;-85
2021/03/14 16:03:11;;;;;;;8.23;1.52;;;9.30;97.00;;;;;;4983912;28;20107;-87
2021/03/14 16:05:37;;;;;;;9.50;2.03;;;9.20;97.20;;;;;;4993489;28;20050;-87
2021/03/14 16:08:02;;;;;;;9.40;1.60;;;9.20;97.10;;;;;;4981918;28;20389;-85
2021/03/14 16:10:28;;;;;;;5.63;1.42;;;9.10;97.20;;;;;;4985308;28;20057;-85
2021/03/14 16:12:53;;;;;;;13.73;2.00;;;9.10;97.40;;;;;;5002443;28;20105;-85
2021/03/14 16:15:19;;;;;;;7.40;1.48;;;9.10;97.40;;;;;;5004730;28;20105;-87
2021/03/14 16:17:45;;;;;;;9.23;1.65;;;9.10;97.90;;;;;;4986572;28;20037;-87
2021/03/14 16:20:11;;;;;;;11.20;1.52;;;9.00;98.00;;;;;;4986271;28;20603;-86
2021/03/14 16:22:37;;;;;;;8.02;1.20;;;9.00;98.50;;;;;;4974860;28;20040;-86
2021/03/14 16:25:05;;;;;;;8.48;1.60;;;8.90;98.80;;;;;;4978073;28;20125;-86
2021/03/14 16:27:30;;;;;;;7.40;1.52;;;8.90;98.60;;;;;;4990075;28;20041;-84
2021/03/14 16:29:56;;;;;;;7.38;1.73;;;8.80;98.60;;;;;;4985214;28;20030;-85
2021/03/14 16:32:22;;;;;;;7.60;1.70;;;8.80;98.50;;;;;;4984514;28;20547;-86
2021/03/14 16:34:48;;;;;;;7.45;1.40;;;8.80;98.90;;;;;;4991906;28;20084;-84
2021/03/14 16:37:19;;;;;;;7.07;1.70;;;8.80;99.30;;;;;;4979541;28;20030;-84
2021/03/14 16:39:44;;;;;;;4.93;1.05;;;8.90;99.40;;;;;;4987533;28;20469;-84
2021/03/14 16:42:13;;;;;;;8.38;1.52;;;8.90;98.70;;;;;;4979385;28;20053;-85
2021/03/14 16:44:39;;;;;;;5.25;1.52;;;8.90;97.90;;;;;;5000668;28;20496;-85
2021/03/14 16:47:05;;;;;;;7.85;1.40;;;8.80;98.60;;;;;;4978536;28;20129;-87
2021/03/14 16:49:31;;;;;;;8.15;1.85;;;8.70;98.60;;;;;;4989685;28;20475;-87
2021/03/14 16:51:57;;;;;;;8.80;1.50;;;8.60;98.30;;;;;;4993581;28;20043;-85
2021/03/14 16:54:22;;;;;;;10.18;1.35;;;8.50;98.00;;;;;;4987995;28;20033;-84
2021/03/14 16:56:48;;;;;;;7.45;1.50;;;8.40;98.10;;;;;;5010642;28;20171;-86
2021/03/14 16:59:14;;;;;;;7.00;1.42;;;8.30;98.00;;;;;;4978695;28;20033;-85
2021/03/14 17:01:40;;;;;;;9.32;1.90;;;8.30;98.10;;;;;;5005797;28;20054;-86
2021/03/14 17:04:06;;;;;;;9.93;1.40;;;8.20;98.50;;;;;;4976436;28;20042;-87
2021/03/14 17:06:31;;;;;;;4.35;1.20;;;8.10;98.80;;;;;;4989815;28;20058;-86
2021/03/14 17:08:57;;;;;;;10.00;1.70;;;8.10;99.30;;;;;;4994762;28;20452;-89
2021/03/14 17:11:23;;;;;;;7.95;1.65;;;8.10;99.30;;;;;;4975332;28;20049;-88
2021/03/14 17:13:51;;;;;;;7.00;1.17;;;8.10;99.30;;;;;;4976104;28;20046;-88
2021/03/14 17:16:16;;;;;;;9.35;1.65;;;8.10;99.50;;;;;;4993581;28;20038;-87
2021/03/14 17:18:42;;;;;;;8.68;1.65;;;8.10;99.30;;;;;;4992071;28;20109;-87
2021/03/14 17:21:11;;;;;;;8.65;1.35;;;8.10;99.50;;;;;;4979342;28;20026;-87
2021/03/14 17:23:37;;;;;;;9.43;1.60;;;8.10;99.90;;;;;;4988030;28;20029;-86
2021/03/14 17:26:03;;;;;;;7.88;1.15;;;8.10;99.90;;;;;;4986973;28;20105;-86
2021/03/14 17:28:29;;;;;;;5.43;1.55;;;8.10;99.90;;;;;;5009037;28;20544;-87
2021/03/14 17:30:55;;;;;;;6.75;1.30;;;8.10;99.90;;;;;;5005116;28;20117;-86
2021/03/14 17:33:21;;;;;;;7.50;1.55;;;8.10;99.90;;;;;;4981775;28;20030;-86
2021/03/14 17:35:47;;;;;;;7.70;1.58;;;8.10;99.90;;;;;;4986835;28;20440;-85
2021/03/14 17:38:14;;;;;;;5.40;1.17;;;8.00;99.90;;;;;;4974746;28;20049;-84
2021/03/14 17:40:40;;;;;;;5.93;1.15;;;8.00;99.90;;;;;;4994760;28;20077;-84
2021/03/14 17:43:06;;;;;;;5.47;1.33;;;8.00;99.90;;;;;;4991341;28;20049;-85
2021/03/14 17:45:32;;;;;;;5.07;1.20;;;8.00;99.90;;;;;;4981655;28;20029;-85
2021/03/14 17:47:58;;;;;;;6.10;1.10;;;7.90;99.90;;;;;;5002571;28;20034;-86
2021/03/14 17:50:24;;;;;;;6.97;1.58;;;7.80;99.90;;;;;;4975583;28;20384;-85
2021/03/14 17:52:50;;;;;;;7.63;1.60;;;7.80;99.90;;;;;;4975080;28;20054;-84
2021/03/14 17:55:18;;;;;;;10.65;1.73;;;7.70;99.90;;;;;;4995535;28;20040;-87
2021/03/14 17:57:49;;;;;;;6.57;1.58;;;7.70;99.90;;;;;;4987687;28;20039;-85
2021/03/14 18:00:19;;;;;;;6.80;1.73;;;7.70;99.90;;;;;;4987156;28;20026;-88
2021/03/14 18:02:54;;;;;;;8.60;1.85;;;7.60;99.90;;;;;;4997218;28;20030;-87
2021/03/14 18:05:20;;;;;;;6.85;1.40;;;7.60;99.90;;;;;;4989544;28;20046;-88
2021/03/14 18:07:49;;;;;;;8.25;1.80;;;7.60;99.90;;;;;;4999113;28;20044;-87
2021/03/14 18:10:15;;;;;;;9.70;1.80;;;7.60;99.90;;;;;;4986865;28;20034;-87
2021/03/14 18:12:41;;;;;;;9.43;2.10;;;7.60;99.90;;;;;;4990353;28;20134;-85
2021/03/14 18:15:09;;;;;;;9.65;2.03;;;7.50;99.90;;;;;;4988049;28;20088;-88
2021/03/14 18:17:35;;;;;;;10.50;1.80;;;7.50;99.90;;;;;;4986296;28;20041;-87
2021/03/14 18:20:01;;;;;;;9.10;2.45;;;7.40;99.90;;;;;;4989013;28;20046;-86
2021/03/14 18:22:27;;;;;;;11.50;2.08;;;7.30;99.90;;;;;;5004122;28;20038;-86
2021/03/14 18:24:53;;;;;;;8.25;2.10;;;7.20;99.90;;;;;;5000610;28;20038;-85
2021/03/14 18:27:18;;;;;;;11.13;2.00;;;7.10;99.90;;;;;;4984063;28;20061;-86
2021/03/14 18:29:44;;;;;;;9.07;1.65;;;7.10;99.90;;;;;;4986432;28;20085;-90
2021/03/14 18:32:10;;;;;;;10.90;2.17;;;7.00;99.90;;;;;;4980909;28;20039;-90
2021/03/14 18:34:35;;;;;;;8.73;2.13;;;7.00;99.90;;;;;;4960714;28;20031;-89
2021/03/14 18:37:01;;;;;;;15.70;2.70;;;6.90;99.90;;;;;;4994825;28;20129;-91
2021/03/14 18:39:28;;;;;;;10.15;2.15;;;6.90;99.90;;;;;;4979428;28;20022;-90
2021/03/14 18:41:54;;;;;;;8.52;1.85;;;6.90;99.90;;;;;;4980373;28;20041;-91
2021/03/14 18:44:20;;;;;;;9.32;1.80;;;6.90;99.90;;;;;;4980793;28;20408;-90
2021/03/14 18:46:46;;;;;;;11.57;2.47;;;6.90;99.90;;;;;;4980400;28;20046;-90